Ohrid, Macedonia
Current Conditions -  °F | °C
As of 2:50 AM on Saturday 25 Oct 2014 (Local Time) from LATI Reporting Station
Clear Clear  
Wind Chill: 48°   Ceiling: Unl
Heat Index: 48°   Visibility: 6mi
Dew Point: 41°   Wind: 0mph
Humidity: 76%   Direction: NA
Pressure: 29.8"   Gusts: NA
Location:  41.12°N, 20.82°E
Report Text: LATI 250050Z 00000KT CAVOK 09/05 Q1009 NOSIG
Loading
Personal Weather Stations






























Interactive Weather Map
Tropical Storm Tracking
New forecast layout! Learn more

10-Day Weather Forecast

Advertisements
Track Severe Weather on mobile